• Join FlightAware (Why Join?)
  • Login
  • US Flag 
08:20PM EDT


 

Airport Tracker/Info


-or-


 

Live Flight TrackerFlight Track Log ✈ SWA717 ✈ 27-Feb-2012 ✈ KSJC - KPHX

Flight Track Log - Related Links

Times and Time Zones

All times are in EST time to prevent confusion due to time zone crossing. See the SWA717 flight status page for this flight to view local times or setup timezone preferences in your user account.

Time Position Orientation Groundspeed Altitude Reporting Facility
EST Latitude Longitude Course Direction KTS MPH feet Rate Location/Type
05:42PM 37.3833 -121.9500 360° North 160 184 1,200  Level Northern Cal TRACON
05:43PM 37.4167 -121.9500 128° Southeast 203 234 3,200 2,040 Climbing Northern Cal TRACON
05:46PM 37.3239 -121.7989 136° Southeast 199 229 8,300 2,160 Climbing Oakland Center
05:47PM 37.2619 -121.7250 135° Southeast 247 284 10,800 2,880 Climbing Oakland Center
05:48PM 37.1978 -121.6436 136° Southeast 297 342 14,200 3,300 Climbing Oakland Center
05:49PM 37.1294 -121.5597 142° Southeast 328 377 17,400 2,820 Climbing Oakland Center
05:50PM 37.0631 -121.4942 139° Southeast 341 392 19,900 2,280 Climbing Oakland Center
05:51PM 36.9839 -121.4078 138° Southeast 354 407 22,000 1,800 Climbing Oakland Center
05:52PM 36.8989 -121.3111 139° Southeast 385 443 23,500 1,800 Climbing Oakland Center
05:53PM 36.8094 -121.2147 138° Southeast 413 475 25,600 1,920 Climbing Oakland Center
05:54PM 36.7156 -121.1108 140° Southeast 428 493 27,400 1,740 Climbing Oakland Center
05:55PM 36.6156 -121.0072 138° Southeast 453 521 29,100 1,740 Climbing Oakland Center
05:56PM 36.5133 -120.8933 139° Southeast 473 544 30,900 1,980 Climbing Oakland Center
05:57PM 36.4131 -120.7853 140° Southeast 481 554 33,100 1,920 Climbing Oakland Center
05:58PM 36.3128 -120.6797 138° Southeast 476 548 34,800 1,440 Climbing Oakland Center
05:59PM 36.1581 -120.5067 130° Southeast 492 566 36,900 840 Climbing Los Angeles Center
06:00PM 36.0728 -120.3814 129° Southeast 486 559 37,000  Climbing Los Angeles Center
06:01PM 35.9875 -120.2536 130° Southeast 481 554 37,000  Level Los Angeles Center
06:02PM 35.9039 -120.1289 130° Southeast 476 548 37,000  Level Los Angeles Center
06:03PM 35.8183 -120.0042 131° Southeast 470 541 37,000  Level Los Angeles Center
06:04PM 35.7325 -119.8825 130° Southeast 475 547 37,000  Level Los Angeles Center
06:05PM 35.6506 -119.7611 130° Southeast 475 547 37,000  Level Los Angeles Center
06:06PM 35.5644 -119.6372 130° Southeast 475 547 37,000  Level Los Angeles Center
06:07PM 35.4803 -119.5136 130° Southeast 475 547 37,000  Level Los Angeles Center
06:08PM 35.3961 -119.3928 131° Southeast 475 547 37,000  Level Los Angeles Center
06:09PM 35.3036 -119.2619 130° Southeast 470 541 37,000  Level Los Angeles Center
06:10PM 35.2189 -119.1392 132° Southeast 470 541 37,000  Level Los Angeles Center
06:11PM 35.1322 -119.0217 130° Southeast 470 541 37,000  Level Los Angeles Center
06:12PM 35.0494 -118.8994 132° Southeast 470 541 37,000  Level Los Angeles Center
06:13PM 34.9644 -118.7828 132° Southeast 470 541 37,000  Level Los Angeles Center
06:14PM 34.8811 -118.6686 131° Southeast 462 532 37,000  Level Los Angeles Center
06:15PM 34.7981 -118.5522 131° Southeast 462 532 37,000  Level Los Angeles Center
06:16PM 34.7208 -118.4439 131° Southeast 462 532 37,000  Level Los Angeles Center
06:17PM 34.6253 -118.3125 131° Southeast 462 532 37,000  Level Los Angeles Center
06:18PM 34.5417 -118.1942 132° Southeast 462 532 37,000  Level Los Angeles Center
06:19PM 34.4558 -118.0786 117° Southeast 462 532 37,000  Level Los Angeles Center
06:20PM 34.3956 -117.9364 105° East 469 540 37,000  Level Los Angeles Center
06:21PM 34.3603 -117.7769 107° East 469 540 37,000  Level Los Angeles Center
06:22PM 34.3206 -117.6203 104° East 476 548 37,000  Level Los Angeles Center
06:23PM 34.2908 -117.4764 106° East 481 554 37,000  Level Los Angeles Center
06:24PM 34.2508 -117.3075 108° East 481 554 37,000  Level Los Angeles Center
06:25PM 34.2086 -117.1511 107° East 481 554 37,000  Level Los Angeles Center
06:26PM 34.1700 -116.9950 107° East 481 554 37,000  Level Los Angeles Center
06:27PM 34.1336 -116.8542 105° East 487 560 37,000  Level Los Angeles Center
06:28PM 34.0947 -116.6756 106° East 487 560 37,000  Level Los Angeles Center
06:29PM 34.0558 -116.5172 108° East 487 560 37,000  Level Los Angeles Center
06:30PM 34.0122 -116.3567 107° East 492 566 37,000  Level Los Angeles Center
06:31PM 33.9728 -116.1989 106° East 492 566 37,000  Level Los Angeles Center
06:32PM 33.9333 -116.0386 108° East 492 566 37,000  Level Los Angeles Center
06:33PM 33.8914 -115.8836 107° East 498 573 37,000  Level Los Angeles Center
06:34PM 33.8511 -115.7211 108° East 498 573 37,000  Level Los Angeles Center
06:35PM 33.8089 -115.5661 107° East 498 573 37,000  Level Los Angeles Center
06:36PM 33.7683 -115.4092 107° East 498 573 37,000 -60 Level Los Angeles Center
06:37PM 33.7278 -115.2544 107° East 493 567 36,900  Descending Los Angeles Center
06:38PM 33.6869 -115.0978 109° East 488 562 37,000  Climbing Los Angeles Center
06:39PM 33.6439 -114.9458 108° East 483 556 37,000 -120 Level Los Angeles Center
06:40PM 33.6025 -114.7894 104° East 483 556 36,800 -1,620 Descending Los Angeles Center
06:41PM 33.5694 -114.6328 103° East 478 550 33,800 -2,700 Descending Los Angeles Center
06:43PM 33.5161 -114.3642 103° East 465 535 29,200 -2,460 Descending Albuquerque Center
06:44PM 33.4872 -114.2150 103° East 465 535 26,900 -2,160 Descending Albuquerque Center
06:45PM 33.4597 -114.0733 103° East 454 522 24,900 -960 Descending Albuquerque Center
06:46PM 33.4339 -113.9419 104° East 431 496 25,000  Climbing Albuquerque Center
06:47PM 33.4039 -113.8028 104° East 425 489 25,000  Level Albuquerque Center
06:48PM 33.3758 -113.6639 104° East 425 489 25,000 -1,080 Level Albuquerque Center
06:49PM 33.3475 -113.5250 103° East 425 489 22,900 -1,560 Descending Albuquerque Center
06:50PM 33.3228 -113.3964 105° East 420 483 21,900 -1,500 Descending Albuquerque Center
06:51PM 33.2956 -113.2728 101° East 402 463 20,000 -2,100 Descending Albuquerque Center
06:52PM 33.2761 -113.1572 91° East 374 430 17,800 -1,500 Descending Albuquerque Center
06:53PM 33.2739 -113.0306 87° East 368 423 17,000 -540 Descending Albuquerque Center
06:54PM 33.2794 -112.9117 89° East 363 418 16,800 -540 Descending Albuquerque Center
06:55PM 33.2803 -112.8025 89° East 357 411 16,000 -660 Descending Albuquerque Center
06:56PM 33.2811 -112.6906 87° East 341 392 15,500 -1,020 Descending Albuquerque Center
06:57PM 33.2864 -112.5717 91° East 327 376 14,000 -1,560 Descending Albuquerque Center
06:59PM 33.2833 -112.4000 79° East 315 362 11,600 -1,320 Descending Phoenix TRACON
07:00PM 33.3000 -112.3000 90° East 301 346 10,600 -960 Descending Phoenix TRACON
07:01PM 33.3000 -112.2000 77° East 280 322 9,600 -780 Descending Phoenix TRACON
07:02PM 33.3167 -112.1167 77° East 274 315 9,100 -840 Descending Phoenix TRACON
07:03PM 33.3333 -112.0333 77° East 271 312 8,100 -1,140 Descending Phoenix TRACON
07:04PM 33.3500 -111.9500 90° East 269 310 7,000 -900 Descending Phoenix TRACON
07:05PM 33.3500 -111.8667 90° East 249 287 6,400 -900 Descending Phoenix TRACON
07:06PM 33.3500 -111.8000 348° North 254 292 5,300 -960 Descending Phoenix TRACON
07:07PM 33.4167 -111.8167 287° West 228 262 4,400 -1,080 Descending Phoenix TRACON
07:08PM 33.4333 -111.8833 287° West 210 242 3,200 -1,380 Descending Phoenix TRACON